KFDR/FDR METAR and TAF weather

Enter ICAO airport designator
Station Type Date Time Source
KFDR METAR 2019/02/17 08:13 UTC NOAA

KFDR 170813Z AUTO 01016KT 7SM BKN006 OVC015 00/M02 A2979 RMK AO2 T00001017


Station Type Date Time Source
KFDR Decoded METAR 2019/02/17 08:13 UTC NOAA

FREDERICK MUNICIPAL AIRPORT, OK, United States (KFDR) 34-21N 98-59W 377M
Feb 17, 2019 - 03:13 AM EST / 2019.02.17 0813 UTC
Wind: from the N (010 degrees) at 18 MPH (16 KT):0
Visibility: 7 mile(s):0
Sky conditions: overcast
Temperature: 32.0 F (0.0 C)
Windchill: 21 F (-6 C):1
Dew Point: 28.9 F (-1.7 C)
Relative Humidity: 88%
Pressure (altimeter): 29.79 in. Hg (1008 hPa)
ob: KFDR 170813Z AUTO 01016KT 7SM BKN006 OVC015 00/M02 A2979 RMK AO2 T00001017
cycle: 8

Station Type Date Time Source
KFDR TAF UTC NOAA

Error!


Example: see airport list